Orienta, Oklahoma
Current Conditions -  °F | °C
As of 12:15 AM on Thursday 23 Oct 2014 (Local Time) from KJWG Reporting Station
Broken Clouds Broken Clouds  
Wind Chill: 60°   Ceiling: 9500
Heat Index: 60°   Visibility: 10mi
Dew Point: 59°   Wind: 5mph
Humidity: 96%   Direction: 130°SE
Pressure: 30.11"   Gusts: NA
Location:  36.2837°N, 98.6091°W
Report Text: KJWG 230515Z AUTO 13004KT 10SM BKN095 BKN120 16/15 A3011 RMK AO2 T01560150
Loading
Personal Weather Stations






























Interactive Weather Map New forecast layout! Learn more

10-Day Weather Forecast

Advertisements
Track Severe Weather on mobile